createdAt,value
2019-04-29T03:02:15.187Z,2.90
2019-04-29T03:04:51.849Z,3.70
2019-04-29T03:07:21.880Z,3.27
2019-04-29T03:09:51.422Z,4.30
2019-04-29T03:12:21.015Z,4.17
2019-04-29T03:14:50.308Z,3.58
2019-04-29T03:17:20.103Z,3.67
2019-04-29T03:20:09.270Z,4.28
2019-04-29T03:22:48.432Z,4.15
2019-04-29T03:25:17.697Z,4.25
2019-04-29T03:27:47.181Z,4.05
2019-04-29T03:30:16.617Z,4.85
2019-04-29T03:32:46.252Z,4.42
2019-04-29T03:35:15.766Z,4.62
2019-04-29T03:37:46.053Z,5.08
2019-04-29T03:40:15.299Z,4.70
2019-04-29T03:42:44.784Z,4.28
2019-04-29T03:45:14.112Z,3.85
2019-04-29T03:47:43.368Z,4.00
2019-04-29T03:50:12.700Z,3.90
2019-04-29T03:52:41.961Z,3.83
2019-04-29T03:55:11.279Z,3.47
2019-04-29T03:57:40.539Z,3.25
2019-04-29T04:00:12.005Z,3.85
2019-04-29T04:02:48.992Z,3.27
2019-04-29T04:05:20.108Z,3.30
2019-04-29T04:07:51.070Z,3.92
2019-04-29T04:10:20.344Z,3.60
2019-04-29T04:12:49.603Z,3.75
2019-04-29T04:15:19.160Z,4.15
2019-04-29T04:17:50.349Z,3.75
2019-04-29T04:20:19.771Z,3.65
2019-04-29T04:22:49.132Z,4.15
2019-04-29T04:25:18.473Z,3.98
2019-04-29T04:27:48.236Z,3.72
2019-04-29T04:30:18.930Z,3.87
2019-04-29T04:32:48.220Z,4.70
2019-04-29T04:35:17.477Z,4.22
2019-04-29T04:37:46.966Z,3.95
2019-04-29T04:40:19.032Z,4.70
2019-04-29T04:42:48.283Z,4.35
2019-04-29T04:45:17.931Z,4.22
2019-04-29T04:47:47.266Z,4.62
2019-04-29T04:50:16.749Z,4.30
2019-04-29T04:52:46.020Z,5.00
2019-04-29T04:55:15.399Z,6.20
2019-04-29T04:57:46.163Z,5.15
2019-04-29T05:00:22.926Z,4.70
2019-04-29T05:02:52.183Z,4.75
2019-04-29T05:05:21.504Z,5.03
2019-04-29T05:07:50.768Z,5.10
2019-04-29T05:10:20.039Z,4.83
2019-04-29T05:12:49.532Z,4.95
2019-04-29T05:15:18.790Z,5.70
2019-04-29T05:17:48.054Z,4.90
2019-04-29T05:20:17.391Z,5.20
2019-04-29T05:22:58.970Z,5.47
2019-04-29T05:25:32.909Z,5.20
2019-04-29T05:28:03.874Z,4.95
2019-04-29T05:30:33.142Z,6.20
2019-04-29T05:33:02.395Z,5.90
2019-04-29T05:35:33.303Z,5.60
2019-04-29T05:38:04.204Z,4.87
2019-04-29T05:40:37.868Z,5.25
2019-04-29T05:43:09.135Z,5.83
2019-04-29T05:45:56.254Z,5.95
2019-04-29T05:48:27.616Z,6.33
2019-04-29T05:51:14.570Z,5.80
2019-04-29T05:53:54.680Z,6.33
2019-04-29T05:56:19.339Z,6.87
2019-04-29T05:58:48.599Z,6.60
2019-04-29T06:01:19.499Z,6.50
2019-04-29T06:03:48.765Z,7.08
2019-04-29T06:06:18.047Z,6.35
2019-04-29T06:08:47.298Z,6.80
2019-04-29T06:11:16.795Z,6.90
2019-04-29T06:13:46.050Z,7.62
2019-04-29T06:16:20.343Z,7.42
2019-04-29T06:18:46.791Z,7.95
2019-04-29T06:21:16.052Z,7.78
2019-04-29T06:23:45.319Z,7.17
2019-04-29T06:26:14.807Z,6.33
2019-04-29T06:28:44.059Z,7.35
2019-04-29T06:31:13.330Z,7.40
2019-04-29T06:33:42.590Z,6.80
2019-04-29T06:36:11.850Z,6.58
2019-04-29T06:38:41.118Z,6.65
2019-04-29T06:41:10.938Z,6.83
2019-04-29T06:43:40.212Z,6.47
2019-04-29T06:46:09.706Z,6.75
2019-04-29T06:48:38.963Z,7.17
2019-04-29T06:51:08.239Z,7.55
2019-04-29T06:53:37.494Z,6.83
2019-04-29T06:56:09.126Z,6.37
2019-04-29T06:58:38.458Z,7.30
2019-04-29T07:01:08.226Z,7.53
2019-04-29T07:03:37.458Z,6.50
2019-04-29T07:06:06.887Z,7.42
2019-04-29T07:08:36.141Z,7.55
2019-04-29T07:11:05.696Z,6.97
2019-04-29T07:13:34.963Z,6.95
2019-04-29T07:16:04.308Z,7.10
2019-04-29T07:18:33.562Z,7.33
2019-04-29T07:21:02.827Z,8.00
2019-04-29T07:23:32.080Z,8.00
2019-04-29T07:26:01.347Z,8.58
2019-04-29T07:28:30.611Z,7.17
2019-04-29T07:31:02.500Z,8.65
2019-04-29T07:33:31.060Z,8.45
2019-04-29T07:36:10.743Z,7.87
2019-04-29T07:38:41.324Z,8.55
2019-04-29T07:41:02.255Z,9.00
2019-04-29T07:43:31.519Z,7.72
2019-04-29T07:46:03.745Z,6.78
2019-04-29T07:48:36.794Z,7.47
2019-04-29T07:51:05.982Z,6.58
2019-04-29T07:53:44.805Z,5.30
2019-04-29T07:56:06.663Z,5.78
2019-04-29T07:58:37.366Z,5.85
2019-04-29T08:01:06.947Z,5.70
2019-04-29T08:03:36.214Z,6.20
2019-04-29T08:06:05.482Z,4.85
2019-04-29T08:08:35.139Z,5.45
2019-04-29T08:11:04.545Z,5.12
2019-04-29T08:13:34.538Z,4.85
2019-04-29T08:16:04.842Z,5.35
2019-04-29T08:18:34.145Z,5.78
2019-04-29T08:21:03.443Z,5.20
2019-04-29T08:23:40.909Z,5.10
2019-04-29T08:26:04.508Z,5.15
2019-04-29T08:28:33.934Z,5.53
2019-04-29T08:31:03.497Z,5.45
2019-04-29T08:33:32.766Z,6.00
2019-04-29T08:36:02.100Z,5.12
2019-04-29T08:38:31.430Z,5.40
2019-04-29T08:41:00.939Z,5.85
2019-04-29T08:43:34.487Z,5.95
2019-04-29T08:46:08.106Z,5.62
2019-04-29T08:48:37.362Z,5.12
2019-04-29T08:51:06.630Z,5.50
2019-04-29T08:53:36.209Z,5.15
2019-04-29T08:56:09.572Z,6.33
2019-04-29T08:58:39.335Z,6.00
2019-04-29T09:01:07.833Z,5.47
2019-04-29T09:03:40.531Z,5.67
2019-04-29T09:06:08.194Z,6.85
2019-04-29T09:08:37.494Z,6.20
2019-04-29T09:11:08.133Z,6.40
2019-04-29T09:13:37.767Z,5.97
2019-04-29T09:16:07.100Z,6.03
2019-04-29T09:18:36.367Z,6.42
2019-04-29T09:21:05.626Z,6.15
2019-04-29T09:23:36.543Z,7.33
2019-04-29T09:26:16.873Z,7.55
2019-04-29T09:28:49.443Z,6.80
2019-04-29T09:31:17.690Z,6.50
2019-04-29T09:33:49.211Z,5.80
2019-04-29T09:36:17.947Z,6.58
2019-04-29T09:38:47.218Z,6.47
2019-04-29T09:41:30.630Z,6.80
2019-04-29T09:44:14.655Z,6.87
2019-04-29T09:46:43.937Z,6.40
2019-04-29T09:49:13.206Z,6.20
2019-04-29T09:51:42.466Z,5.62
2019-04-29T09:54:14.601Z,5.55
2019-04-29T09:56:43.974Z,6.00
2019-04-29T09:59:23.855Z,5.67
2019-04-29T10:02:11.450Z,5.22
2019-04-29T10:04:56.411Z,6.95
2019-04-29T10:07:19.407Z,6.10
2019-04-29T10:09:56.833Z,5.47
2019-04-29T10:12:19.630Z,5.40
2019-04-29T10:14:49.143Z,5.95
2019-04-29T10:17:20.086Z,5.15
2019-04-29T10:20:08.148Z,5.35
2019-04-29T10:22:37.546Z,6.22
2019-04-29T10:25:07.875Z,5.80
2019-04-29T10:27:38.331Z,5.42
2019-04-29T10:30:09.315Z,5.97
2019-04-29T10:32:42.486Z,5.62
2019-04-29T10:35:10.809Z,5.50
2019-04-29T10:37:41.155Z,6.03
2019-04-29T10:40:19.430Z,8.00
2019-04-29T10:42:56.083Z,6.90
2019-04-29T10:45:29.672Z,5.83
2019-04-29T10:48:05.986Z,5.95
2019-04-29T10:50:47.179Z,5.85
2019-04-29T10:53:15.444Z,5.95
2019-04-29T10:55:45.322Z,6.65
2019-04-29T10:58:15.451Z,6.08
2019-04-29T11:00:52.826Z,5.08
2019-04-29T11:03:25.030Z,5.97
2019-04-29T11:06:00.551Z,5.08
2019-04-29T11:08:26.965Z,5.22
2019-04-29T11:11:02.457Z,5.50
2019-04-29T11:13:28.331Z,4.97
2019-04-29T11:15:57.726Z,4.80
2019-04-29T11:18:27.062Z,5.03
2019-04-29T11:20:56.394Z,4.80
2019-04-29T11:23:29.959Z,4.65
2019-04-29T11:26:18.931Z,6.25
2019-04-29T11:28:51.279Z,5.25
2019-04-29T11:31:19.940Z,5.83
2019-04-29T11:33:59.546Z,4.58
2019-04-29T11:36:29.667Z,4.45
2019-04-29T11:38:58.930Z,3.42
2019-04-29T11:41:30.170Z,2.77
2019-04-29T11:43:59.736Z,2.90
2019-04-29T11:46:28.987Z,2.60
2019-04-29T11:48:59.890Z,2.80
2019-04-29T11:51:43.863Z,2.87
2019-04-29T11:54:08.235Z,2.12
2019-04-29T11:56:39.320Z,2.95
2019-04-29T11:59:11.565Z,2.50
2019-04-29T12:01:47.233Z,2.52
2019-04-29T12:04:33.557Z,2.40
2019-04-29T12:07:01.132Z,2.30
2019-04-29T12:09:32.196Z,2.00
2019-04-29T12:12:01.686Z,2.30
2019-04-29T12:14:41.338Z,1.90
2019-04-29T12:17:21.394Z,2.10
2019-04-29T12:20:04.006Z,2.20
2019-04-29T12:22:47.180Z,2.50
2019-04-29T12:25:06.542Z,2.12
2019-04-29T12:27:37.003Z,2.22
2019-04-29T12:30:10.206Z,2.40
2019-04-29T12:32:43.543Z,2.12
2019-04-29T12:35:21.733Z,2.27
2019-04-29T12:38:11.016Z,2.02
2019-04-29T12:40:55.214Z,1.95
2019-04-29T12:43:33.158Z,2.08
2019-04-29T12:46:04.059Z,2.02
2019-04-29T12:48:33.332Z,2.15
2019-04-29T12:51:02.864Z,2.10
2019-04-29T12:53:32.123Z,1.82
2019-04-29T12:56:01.399Z,2.10
2019-04-29T12:58:30.669Z,2.08
2019-04-29T13:01:06.027Z,1.90
2019-04-29T13:03:41.024Z,2.33
2019-04-29T13:06:38.728Z,2.10
2019-04-29T13:09:01.736Z,2.22
2019-04-29T13:11:45.555Z,2.10
2019-04-29T13:14:03.786Z,2.40
2019-04-29T13:16:34.767Z,2.27
2019-04-29T13:19:12.251Z,2.02
2019-04-29T13:21:39.359Z,2.35
2019-04-29T13:24:21.543Z,2.20
2019-04-29T13:26:42.607Z,2.22
2019-04-29T13:29:09.753Z,2.40
2019-04-29T13:31:39.521Z,3.10
2019-04-29T13:34:23.562Z,2.85
2019-04-29T13:36:41.506Z,3.30
2019-04-29T13:39:10.834Z,3.25
2019-04-29T13:41:56.067Z,2.98
2019-04-29T13:44:11.890Z,3.35
2019-04-29T13:46:54.054Z,5.25
2019-04-29T13:49:30.047Z,3.85
2019-04-29T13:52:00.954Z,4.53
2019-04-29T13:54:30.228Z,3.85
2019-04-29T13:57:07.682Z,3.58
2019-04-29T13:59:32.142Z,3.90
2019-04-29T14:02:11.871Z,3.72
2019-04-29T14:04:48.348Z,4.62
2019-04-29T14:07:19.932Z,4.20
2019-04-29T14:09:49.222Z,3.80
2019-04-29T14:12:47.249Z,4.45
2019-04-29T14:14:49.442Z,3.75
2019-04-29T14:17:26.407Z,4.33
2019-04-29T14:19:49.674Z,4.53
2019-04-29T14:22:22.325Z,4.10
2019-04-29T14:24:50.343Z,4.65
2019-04-29T14:27:25.198Z,5.03
2019-04-29T14:29:51.561Z,4.90
2019-04-29T14:32:33.297Z,5.47
2019-04-29T14:34:53.574Z,5.47
2019-04-29T14:37:25.356Z,4.92
2019-04-29T14:39:53.813Z,4.40
2019-04-29T14:42:39.534Z,3.92
2019-04-29T14:47:57.039Z,4.90
2019-04-29T14:50:26.591Z,3.92
2019-04-29T14:52:55.894Z,4.80
2019-04-29T14:55:27.086Z,4.40
2019-04-29T14:58:02.357Z,4.05
2019-04-29T15:00:51.140Z,4.37
2019-04-29T15:03:25.100Z,4.42
2019-04-29T15:05:55.410Z,4.15
2019-04-29T15:08:24.993Z,4.42
2019-04-29T15:10:54.388Z,4.40
2019-04-29T15:13:24.991Z,4.17
2019-04-29T15:16:13.933Z,4.58
2019-04-29T15:18:51.125Z,3.92
2019-04-29T15:21:32.692Z,4.80
2019-04-29T15:24:02.023Z,5.10
2019-04-29T15:26:31.282Z,5.33
2019-04-29T15:29:00.783Z,5.42
2019-04-29T15:31:30.082Z,5.97
2019-04-29T15:33:59.568Z,5.83
2019-04-29T15:36:30.794Z,6.30
2019-04-29T15:39:09.860Z,6.28
2019-04-29T15:41:33.279Z,5.55
2019-04-29T15:44:07.607Z,5.58
2019-04-29T15:46:45.498Z,5.60
2019-04-29T15:49:06.027Z,5.47
2019-04-29T15:51:36.275Z,5.55
2019-04-29T15:54:09.136Z,6.87
2019-04-29T15:56:38.671Z,6.92
2019-04-29T15:59:09.896Z,7.15
2019-04-29T16:01:41.469Z,7.22
2019-04-29T16:04:11.519Z,7.65
2019-04-29T16:06:42.427Z,8.60
2019-04-29T16:09:23.607Z,8.75
2019-04-29T16:12:13.955Z,7.83
2019-04-29T16:14:40.919Z,8.13
2019-04-29T16:17:10.175Z,7.97
2019-04-29T16:19:39.462Z,8.25
2019-04-29T16:22:12.853Z,8.88
2019-04-29T16:24:39.717Z,8.38
2019-04-29T16:27:10.470Z,7.70
2019-04-29T16:29:39.843Z,8.50
2019-04-29T16:32:10.746Z,9.45
2019-04-29T16:34:45.124Z,8.50
2019-04-29T16:37:10.990Z,8.95
2019-04-29T16:39:40.638Z,9.08
2019-04-29T16:42:11.538Z,9.45
2019-04-29T16:44:41.470Z,9.45
2019-04-29T16:47:13.109Z,9.58
2019-04-29T16:49:42.612Z,9.75
2019-04-29T16:52:11.906Z,8.43
2019-04-29T16:54:41.175Z,7.90
2019-04-29T16:57:10.470Z,8.25
2019-04-29T16:59:39.782Z,8.30
2019-04-29T17:02:09.904Z,7.67
2019-04-29T17:04:39.194Z,8.88
2019-04-29T17:07:13.552Z,8.95
2019-04-29T17:09:59.431Z,9.45
2019-04-29T17:12:36.091Z,9.63
2019-04-29T17:15:04.423Z,9.93
2019-04-29T17:17:34.403Z,11.73
2019-04-29T17:20:05.507Z,11.60
2019-04-29T17:22:35.705Z,11.90
2019-04-29T17:25:07.731Z,11.70
2019-04-29T17:27:55.067Z,10.82
2019-04-29T17:30:46.685Z,8.75
2019-04-29T17:33:28.029Z,9.03
2019-04-29T17:38:21.887Z,8.53
2019-04-29T17:40:51.513Z,9.65
2019-04-29T17:43:25.383Z,8.28
2019-04-29T17:46:04.767Z,8.38
2019-04-29T17:48:41.576Z,8.60
2019-04-29T17:51:12.639Z,9.60
2019-04-29T17:53:43.554Z,9.90
2019-04-29T17:56:30.726Z,9.85
2019-04-29T17:59:05.958Z,8.60
2019-04-29T18:04:20.293Z,9.65
2019-04-29T18:07:08.201Z,9.50
2019-04-29T18:09:36.623Z,8.48
2019-04-29T18:12:07.692Z,8.50
2019-04-29T18:14:41.554Z,10.08
2019-04-29T18:17:09.010Z,9.63
2019-04-29T18:19:42.831Z,10.43
2019-04-29T18:22:16.479Z,10.32
2019-04-29T18:24:56.295Z,11.03
2019-04-29T18:27:27.446Z,11.88
2019-04-29T18:29:56.725Z,11.45
2019-04-29T18:32:35.032Z,12.70
2019-04-29T18:34:57.563Z,13.08
2019-04-29T18:37:30.374Z,14.45
2019-04-29T18:40:02.163Z,14.50
2019-04-29T18:42:29.971Z,14.00
2019-04-29T18:45:00.394Z,14.63
2019-04-29T18:47:34.791Z,14.07
2019-04-29T18:50:01.152Z,14.93
2019-04-29T18:52:30.506Z,12.88
2019-04-29T18:54:59.786Z,14.10
2019-04-29T18:57:30.939Z,12.65
2019-04-29T19:00:06.761Z,12.07
2019-04-29T19:02:32.383Z,13.55
2019-04-29T19:05:03.735Z,12.03
2019-04-29T19:07:37.170Z,12.00
2019-04-29T19:10:07.668Z,12.60
2019-04-29T19:12:39.292Z,12.50
2019-04-29T19:15:11.631Z,14.13
2019-04-29T19:17:40.380Z,12.37
2019-04-29T19:20:12.938Z,14.15
2019-04-29T19:22:44.147Z,11.33
2019-04-29T19:25:15.425Z,12.65
2019-04-29T19:27:45.491Z,12.45
2019-04-29T19:30:21.081Z,12.85
2019-04-29T19:32:55.615Z,12.05
2019-04-29T19:35:20.947Z,12.75
2019-04-29T19:37:50.566Z,13.90
2019-04-29T19:40:19.916Z,11.53
2019-04-29T19:42:49.191Z,11.40
2019-04-29T19:45:18.698Z,12.28
2019-04-29T19:47:52.979Z,12.58
2019-04-29T19:50:19.824Z,12.85
2019-04-29T19:52:49.354Z,13.18
2019-04-29T19:55:18.636Z,13.70
2019-04-29T19:57:51.823Z,13.95
2019-04-29T20:00:19.599Z,14.90
2019-04-29T20:02:50.886Z,15.40
2019-04-29T20:05:23.900Z,14.50
2019-04-29T20:07:55.657Z,15.25
2019-04-29T20:10:28.400Z,18.35
2019-04-29T20:12:57.754Z,17.65
2019-04-29T20:15:31.154Z,17.10
2019-04-29T20:17:59.954Z,20.27
2019-04-29T20:20:38.376Z,20.72
2019-04-29T20:23:05.965Z,20.85
2019-04-29T20:25:38.285Z,21.37
2019-04-29T20:28:12.665Z,23.52
2019-04-29T20:30:37.711Z,18.90
2019-04-29T20:33:09.511Z,23.75
2019-04-29T20:35:40.504Z,23.07
2019-04-29T20:38:09.179Z,23.62
2019-04-29T20:40:42.879Z,23.83
2019-04-29T20:43:09.685Z,23.83
2019-04-29T20:45:38.983Z,21.70
2019-04-29T20:48:11.117Z,23.20
2019-04-29T20:50:40.972Z,24.77
2019-04-29T20:53:12.141Z,26.02
2019-04-29T20:55:41.570Z,26.75
2019-04-29T20:58:10.954Z,25.02
2019-04-29T21:00:40.741Z,23.30
2019-04-29T21:03:11.586Z,25.12
2019-04-29T21:05:48.334Z,20.97
2019-04-29T21:08:16.540Z,24.63
2019-04-29T21:10:46.361Z,23.00
2019-04-29T21:13:20.370Z,25.32
2019-04-29T21:18:27.114Z,24.92
2019-04-29T21:20:59.654Z,24.87
2019-04-29T21:23:31.440Z,27.67
2019-04-29T21:26:00.432Z,26.62
2019-04-29T21:28:31.570Z,27.70
2019-04-29T21:31:00.738Z,24.18
2019-04-29T21:33:31.259Z,27.15
2019-04-29T21:36:02.198Z,28.35
2019-04-29T21:38:35.211Z,27.75
2019-04-29T21:41:08.878Z,28.27
2019-04-29T21:43:47.090Z,29.55
2019-04-29T21:46:19.698Z,28.67
2019-04-29T21:48:45.708Z,28.90
2019-04-29T21:51:15.441Z,26.10
2019-04-29T21:53:46.011Z,27.62
2019-04-29T21:56:16.027Z,28.10
2019-04-29T21:58:45.390Z,28.38
2019-04-29T22:01:15.266Z,28.17
2019-04-29T22:03:45.750Z,29.27
2019-04-29T22:06:15.332Z,31.82
2019-04-29T22:08:45.292Z,29.55
2019-04-29T22:11:15.531Z,28.02
2019-04-29T22:13:45.674Z,26.82
2019-04-29T22:16:15.735Z,29.75
2019-04-29T22:18:51.778Z,27.73
2019-04-29T22:21:21.900Z,30.45
2019-04-29T22:23:51.000Z,23.70
2019-04-29T22:26:23.282Z,27.42
2019-04-29T22:28:53.240Z,26.25
2019-04-29T22:31:26.883Z,28.90
2019-04-29T22:33:53.046Z,26.02
2019-04-29T22:36:22.607Z,25.70
2019-04-29T22:38:52.147Z,25.65
2019-04-29T22:41:37.919Z,25.48
2019-04-29T22:46:44.766Z,25.62
2019-04-29T22:49:12.698Z,28.00
2019-04-29T22:51:41.974Z,25.95
2019-04-29T22:54:11.250Z,28.15
2019-04-29T22:56:40.778Z,27.58
2019-04-29T22:59:10.102Z,26.90
2019-04-29T23:01:42.240Z,25.55
2019-04-29T23:04:14.548Z,25.77
2019-04-29T23:06:44.667Z,25.43
2019-04-29T23:09:13.199Z,23.42
2019-04-29T23:11:42.606Z,28.42
2019-04-29T23:14:11.882Z,27.25
2019-04-29T23:16:41.934Z,29.10
2019-04-29T23:19:13.951Z,26.75
2019-04-29T23:21:47.271Z,27.50
2019-04-29T23:24:25.700Z,27.13
2019-04-29T23:26:55.130Z,24.52
2019-04-29T23:29:25.530Z,25.48
2019-04-29T23:31:55.390Z,25.72
2019-04-29T23:34:29.127Z,29.40
2019-04-29T23:36:55.698Z,27.55
2019-04-29T23:39:24.980Z,24.92
2019-04-29T23:41:55.411Z,26.23
2019-04-29T23:44:24.792Z,27.60
2019-04-29T23:46:54.062Z,26.40
2019-04-29T23:49:25.045Z,28.77
2019-04-29T23:51:54.611Z,26.68
2019-04-29T23:54:25.222Z,28.35
2019-04-29T23:57:01.946Z,25.85
2019-04-29T23:59:38.950Z,27.35
